createdAt,value
2023-03-30T00:00:19.776Z,15.95
2023-03-30T00:02:49.087Z,15.88
2023-03-30T00:05:17.424Z,15.57
2023-03-30T00:07:47.358Z,16.58
2023-03-30T00:10:17.730Z,15.82
2023-03-30T00:12:47.110Z,15.90
2023-03-30T00:15:16.515Z,16.17
2023-03-30T00:17:43.556Z,16.88
2023-03-30T00:20:14.235Z,16.13
2023-03-30T00:22:42.060Z,16.17
2023-03-30T00:25:12.332Z,16.63
2023-03-30T00:27:39.879Z,16.13
2023-03-30T00:30:11.080Z,15.13
2023-03-30T00:32:37.982Z,28.08
2023-03-30T00:35:05.756Z,14.63
2023-03-30T00:37:33.149Z,24.38
2023-03-30T00:39:59.926Z,15.65
2023-03-30T00:42:26.593Z,17.67
2023-03-30T00:45:09.026Z,15.50
2023-03-30T00:47:43.110Z,13.48
2023-03-30T00:50:12.184Z,12.48
2023-03-30T00:52:39.495Z,12.40
2023-03-30T00:55:07.902Z,12.07
2023-03-30T00:57:37.342Z,12.63
2023-03-30T01:00:08.345Z,18.85
2023-03-30T01:02:39.742Z,12.15
2023-03-30T01:05:08.635Z,11.85
2023-03-30T01:07:37.630Z,12.68
2023-03-30T01:10:04.871Z,11.85
2023-03-30T01:12:31.657Z,12.00
2023-03-30T01:14:58.379Z,12.18
2023-03-30T01:17:43.328Z,13.13
2023-03-30T01:20:25.448Z,11.18
2023-03-30T01:23:33.123Z,11.55
2023-03-30T01:26:33.510Z,11.32
2023-03-30T01:29:11.230Z,10.68
2023-03-30T01:32:07.409Z,10.50
2023-03-30T01:34:37.216Z,12.13
2023-03-30T01:37:53.217Z,13.07
2023-03-30T01:40:23.325Z,15.75
2023-03-30T01:43:04.953Z,10.90
2023-03-30T01:45:40.174Z,10.70
2023-03-30T01:48:19.491Z,11.20
2023-03-30T01:50:53.896Z,11.20
2023-03-30T01:53:38.815Z,11.32
2023-03-30T01:56:16.693Z,12.63
2023-03-30T01:59:06.648Z,11.43
2023-03-30T02:01:37.856Z,12.38
2023-03-30T02:04:08.278Z,12.88
2023-03-30T02:06:43.933Z,13.57
2023-03-30T02:09:15.897Z,14.90
2023-03-30T02:11:46.044Z,20.85
2023-03-30T02:14:15.945Z,15.40
2023-03-30T02:16:48.316Z,17.50
2023-03-30T02:19:16.884Z,18.27
2023-03-30T02:21:44.304Z,19.35
2023-03-30T02:24:19.160Z,19.27
2023-03-30T02:26:50.395Z,19.65
2023-03-30T02:29:18.217Z,19.58
2023-03-30T02:31:47.949Z,20.45
2023-03-30T02:34:29.052Z,21.25
2023-03-30T02:37:32.471Z,20.30
2023-03-30T02:40:26.428Z,21.08
2023-03-30T02:43:19.647Z,20.33
2023-03-30T02:46:04.699Z,22.45
2023-03-30T02:48:41.560Z,21.13
2023-03-30T02:51:08.661Z,21.08
2023-03-30T02:54:17.730Z,19.85
2023-03-30T02:57:11.647Z,20.48
2023-03-30T02:59:44.452Z,20.73
2023-03-30T03:02:19.949Z,20.42
2023-03-30T03:04:52.957Z,20.58
2023-03-30T03:07:32.121Z,19.85
2023-03-30T03:09:59.833Z,21.60
2023-03-30T03:12:28.679Z,20.67
2023-03-30T03:14:55.315Z,21.13
2023-03-30T03:17:22.418Z,21.35
2023-03-30T03:19:49.855Z,21.20
2023-03-30T03:22:18.756Z,20.55
2023-03-30T03:24:45.800Z,20.13
2023-03-30T03:27:42.088Z,21.30
2023-03-30T03:30:17.080Z,20.58
2023-03-30T03:32:50.636Z,20.45
2023-03-30T03:35:18.024Z,20.30
2023-03-30T03:37:45.076Z,20.92
2023-03-30T03:40:11.896Z,20.95
2023-03-30T03:42:39.424Z,20.08
2023-03-30T03:45:11.765Z,20.30
2023-03-30T03:47:51.626Z,20.50
2023-03-30T03:50:23.401Z,20.55
2023-03-30T03:52:50.767Z,20.48
2023-03-30T03:55:17.657Z,21.90
2023-03-30T03:57:45.015Z,21.88
2023-03-30T04:00:18.150Z,20.73
2023-03-30T04:02:49.953Z,21.35
2023-03-30T04:05:16.632Z,20.90
2023-03-30T04:07:46.175Z,20.83
2023-03-30T04:10:14.330Z,22.33
2023-03-30T04:12:46.026Z,20.88
2023-03-30T04:15:27.622Z,20.58
2023-03-30T04:18:33.202Z,20.65
2023-03-30T04:21:12.859Z,24.20
2023-03-30T04:24:05.759Z,20.92
2023-03-30T04:27:09.499Z,20.67
2023-03-30T04:29:44.613Z,20.92
2023-03-30T04:32:41.148Z,20.50
2023-03-30T04:35:25.261Z,20.45
2023-03-30T04:40:56.212Z,20.60
2023-03-30T04:43:44.563Z,26.90
2023-03-30T04:46:28.073Z,20.55
2023-03-30T04:49:05.787Z,20.55
2023-03-30T04:52:10.851Z,21.00
2023-03-30T04:54:55.759Z,20.80
2023-03-30T04:57:54.396Z,21.25
2023-03-30T05:00:39.770Z,21.63
2023-03-30T05:03:29.882Z,20.88
2023-03-30T05:06:06.145Z,21.52
2023-03-30T05:08:45.483Z,21.33
2023-03-30T05:11:21.932Z,21.23
2023-03-30T05:13:57.483Z,22.20
2023-03-30T05:19:29.925Z,20.83
2023-03-30T05:22:11.552Z,28.13
2023-03-30T05:24:56.584Z,27.40
2023-03-30T05:27:43.445Z,26.17
2023-03-30T05:30:40.725Z,25.27
2023-03-30T05:36:13.535Z,25.50
2023-03-30T05:39:09.434Z,26.60
2023-03-30T05:41:41.796Z,29.20
2023-03-30T05:44:19.988Z,26.70
2023-03-30T05:47:16.846Z,26.10
2023-03-30T05:50:03.943Z,26.23
2023-03-30T05:52:47.969Z,29.83
2023-03-30T05:55:33.350Z,28.27
2023-03-30T05:58:28.941Z,29.70
2023-03-30T06:01:15.883Z,26.92
2023-03-30T06:03:45.013Z,28.35
2023-03-30T06:06:12.144Z,29.17
2023-03-30T06:08:41.739Z,28.83
2023-03-30T06:11:11.766Z,26.02
2023-03-30T06:13:55.247Z,26.17
2023-03-30T06:16:21.940Z,27.05
2023-03-30T06:18:48.569Z,29.05
2023-03-30T06:21:15.562Z,28.38
2023-03-30T06:23:53.220Z,28.65
2023-03-30T06:26:23.483Z,27.33
2023-03-30T06:28:50.395Z,28.52
2023-03-30T06:31:17.507Z,28.23
2023-03-30T06:33:47.575Z,27.58
2023-03-30T06:36:14.502Z,28.05
2023-03-30T06:38:46.364Z,27.90
2023-03-30T06:41:15.781Z,27.35
2023-03-30T06:43:44.328Z,25.85
2023-03-30T06:46:15.646Z,25.58
2023-03-30T06:48:48.284Z,26.45
2023-03-30T06:51:36.577Z,26.75
2023-03-30T06:54:04.884Z,27.52
2023-03-30T06:56:31.737Z,27.95
2023-03-30T06:59:05.578Z,26.40
2023-03-30T07:01:37.587Z,27.58
2023-03-30T07:04:25.328Z,26.77
2023-03-30T07:07:08.397Z,27.55
2023-03-30T07:09:35.177Z,28.83
2023-03-30T07:12:02.128Z,29.00
2023-03-30T07:14:29.330Z,29.05
2023-03-30T07:16:57.578Z,28.52
2023-03-30T07:19:24.193Z,29.33
2023-03-30T07:21:51.096Z,27.20
2023-03-30T07:24:20.336Z,26.33
2023-03-30T07:26:47.018Z,26.88
2023-03-30T07:29:15.300Z,28.90
2023-03-30T07:31:44.907Z,28.58
2023-03-30T07:34:13.458Z,25.88
2023-03-30T07:36:47.468Z,25.63
2023-03-30T07:39:14.264Z,27.00
2023-03-30T07:41:43.555Z,28.35
2023-03-30T07:44:10.300Z,25.10
2023-03-30T07:46:37.152Z,25.13
2023-03-30T07:49:04.005Z,25.45
2023-03-30T07:51:31.698Z,25.48
2023-03-30T07:54:13.974Z,26.48
2023-03-30T07:56:54.944Z,26.92
2023-03-30T07:59:23.683Z,26.00
2023-03-30T08:01:54.342Z,29.80
2023-03-30T08:04:41.453Z,29.13
2023-03-30T08:07:09.630Z,28.13
2023-03-30T08:09:37.461Z,25.92
2023-03-30T08:12:04.712Z,26.90
2023-03-30T08:14:31.317Z,27.25
2023-03-30T08:16:57.949Z,30.00
2023-03-30T08:19:25.460Z,26.60
2023-03-30T08:21:52.032Z,26.45
2023-03-30T08:24:18.714Z,29.77
2023-03-30T08:26:45.516Z,31.95
2023-03-30T08:29:12.747Z,29.83
2023-03-30T08:31:39.488Z,29.17
2023-03-30T08:34:07.856Z,28.23
2023-03-30T08:36:34.799Z,28.67
2023-03-30T08:39:02.568Z,27.55
2023-03-30T08:41:29.175Z,30.63
2023-03-30T08:44:00.698Z,28.10
2023-03-30T08:46:29.965Z,28.20
2023-03-30T08:49:00.924Z,28.58
2023-03-30T08:51:33.164Z,28.38
2023-03-30T08:54:09.305Z,27.75
2023-03-30T08:56:41.532Z,28.73
2023-03-30T08:59:20.996Z,27.95
2023-03-30T09:01:47.791Z,27.48
2023-03-30T09:04:29.448Z,26.38
2023-03-30T09:07:12.111Z,26.77
2023-03-30T09:09:47.277Z,26.90
2023-03-30T09:12:43.098Z,28.20
2023-03-30T09:15:31.719Z,26.30
2023-03-30T09:18:17.495Z,26.48
2023-03-30T09:23:15.558Z,26.98
2023-03-30T09:26:01.319Z,25.90
2023-03-30T09:28:40.658Z,26.42
2023-03-30T09:31:11.791Z,26.75
2023-03-30T09:33:46.835Z,25.10
2023-03-30T09:38:43.055Z,26.98
2023-03-30T09:41:43.869Z,26.40
2023-03-30T09:44:22.680Z,26.17
2023-03-30T09:46:52.321Z,25.88
2023-03-30T09:49:18.880Z,26.02
2023-03-30T09:52:07.603Z,25.35
2023-03-30T09:54:40.704Z,25.70
2023-03-30T09:57:31.468Z,24.45
2023-03-30T10:00:01.219Z,26.27
2023-03-30T10:02:31.228Z,24.85
2023-03-30T10:05:02.502Z,26.45
2023-03-30T10:07:33.160Z,25.88
2023-03-30T10:10:03.143Z,25.65
2023-03-30T10:12:30.690Z,25.65
2023-03-30T10:15:12.577Z,24.27
2023-03-30T10:17:41.466Z,17.23
2023-03-30T10:20:38.768Z,12.77
2023-03-30T10:23:15.691Z,11.50
2023-03-30T10:25:43.507Z,8.20
2023-03-30T10:28:26.947Z,10.02
2023-03-30T10:31:16.892Z,9.75
2023-03-30T10:33:44.651Z,10.02
2023-03-30T10:36:14.194Z,9.57
2023-03-30T10:38:43.187Z,8.98
2023-03-30T10:41:22.299Z,10.88
2023-03-30T10:43:52.804Z,9.52
2023-03-30T10:46:22.864Z,13.93
2023-03-30T10:49:19.938Z,11.60
2023-03-30T10:52:05.541Z,15.88
2023-03-30T10:54:42.617Z,14.25
2023-03-30T10:57:21.775Z,16.38
2023-03-30T11:00:12.930Z,19.05
2023-03-30T11:02:46.055Z,18.67
2023-03-30T11:05:19.706Z,18.75
2023-03-30T11:07:48.494Z,23.58
2023-03-30T11:10:22.010Z,24.33
2023-03-30T11:13:14.637Z,27.27
2023-03-30T11:15:45.272Z,27.10
2023-03-30T11:18:28.621Z,28.52
2023-03-30T11:21:04.125Z,30.73
2023-03-30T11:23:43.096Z,31.10
2023-03-30T11:26:20.114Z,30.45
2023-03-30T11:29:08.111Z,34.28
2023-03-30T11:31:49.849Z,28.90
2023-03-30T11:35:09.279Z,29.20
2023-03-30T11:37:48.117Z,28.83
2023-03-30T11:40:21.387Z,29.20
2023-03-30T11:42:49.198Z,28.90
2023-03-30T11:45:31.791Z,25.85
2023-03-30T11:48:35.846Z,23.98
2023-03-30T11:51:12.062Z,23.35
2023-03-30T11:54:06.083Z,25.67
2023-03-30T11:57:20.218Z,25.55
2023-03-30T12:00:08.175Z,28.17
2023-03-30T12:02:50.825Z,25.35
2023-03-30T12:05:27.794Z,26.42
2023-03-30T12:08:12.748Z,27.00
2023-03-30T12:10:41.624Z,28.60
2023-03-30T12:13:17.295Z,27.30
2023-03-30T12:16:09.247Z,30.45
2023-03-30T12:19:06.760Z,31.17
2023-03-30T12:21:49.935Z,27.98
2023-03-30T12:24:50.717Z,26.13
2023-03-30T12:27:17.681Z,27.77
2023-03-30T12:32:28.251Z,27.33
2023-03-30T12:34:57.016Z,28.77
2023-03-30T12:37:28.424Z,27.77
2023-03-30T12:40:12.268Z,28.60
2023-03-30T12:42:46.748Z,28.42
2023-03-30T12:45:32.713Z,27.27
2023-03-30T12:48:28.937Z,27.55
2023-03-30T12:51:16.042Z,30.52
2023-03-30T12:54:08.209Z,33.75
2023-03-30T12:56:56.028Z,31.58
2023-03-30T12:59:53.575Z,29.25
2023-03-30T13:02:38.600Z,31.85
2023-03-30T13:05:31.997Z,30.00
2023-03-30T13:08:04.419Z,30.67
2023-03-30T13:10:31.570Z,31.00
2023-03-30T13:13:01.418Z,31.38
2023-03-30T13:15:49.053Z,32.22
2023-03-30T13:18:18.429Z,33.28
2023-03-30T13:20:48.148Z,29.83
2023-03-30T13:23:14.712Z,31.33
2023-03-30T13:25:49.009Z,30.65
2023-03-30T13:28:34.492Z,33.83
2023-03-30T13:31:32.096Z,31.42
2023-03-30T13:34:31.344Z,33.40
2023-03-30T13:37:23.888Z,33.10
2023-03-30T13:40:00.144Z,30.98
2023-03-30T13:42:45.768Z,33.30
2023-03-30T13:45:24.810Z,30.85
2023-03-30T13:48:03.703Z,28.48
2023-03-30T13:50:34.125Z,28.15
2023-03-30T13:53:08.309Z,20.88
2023-03-30T13:55:45.476Z,17.33
2023-03-30T13:58:20.563Z,18.00
2023-03-30T14:00:55.663Z,15.38
2023-03-30T14:03:28.795Z,19.00
2023-03-30T14:06:02.613Z,18.98
2023-03-30T14:08:34.141Z,13.63
2023-03-30T14:11:04.647Z,19.23
2023-03-30T14:13:33.446Z,21.17
2023-03-30T14:16:00.297Z,17.85
2023-03-30T14:18:27.644Z,19.02
2023-03-30T14:20:57.737Z,19.95
2023-03-30T14:23:40.437Z,23.67
2023-03-30T14:26:28.922Z,16.67
2023-03-30T14:28:58.783Z,14.30
2023-03-30T14:31:28.737Z,13.32
2023-03-30T14:33:55.703Z,12.48
2023-03-30T14:36:22.876Z,11.65
2023-03-30T14:38:52.702Z,12.10
2023-03-30T14:41:27.811Z,16.42
2023-03-30T14:44:00.453Z,11.63
2023-03-30T14:46:48.190Z,14.90
2023-03-30T14:49:18.315Z,13.98
2023-03-30T14:51:48.099Z,13.65
2023-03-30T14:54:21.507Z,13.15
2023-03-30T14:56:57.745Z,11.15
2023-03-30T14:59:26.528Z,9.32
2023-03-30T15:01:54.997Z,14.40
2023-03-30T15:04:25.936Z,8.57
2023-03-30T15:06:53.638Z,11.70
2023-03-30T15:09:24.680Z,12.25
2023-03-30T15:12:01.777Z,12.27
2023-03-30T15:14:35.543Z,12.02
2023-03-30T15:17:08.516Z,13.30
2023-03-30T15:19:37.513Z,13.85
2023-03-30T15:22:31.376Z,16.67
2023-03-30T15:25:02.297Z,17.92
2023-03-30T15:27:30.282Z,18.02
2023-03-30T15:29:59.849Z,19.25
2023-03-30T15:32:35.978Z,19.50
2023-03-30T15:35:23.124Z,22.02
2023-03-30T15:38:12.440Z,19.90
2023-03-30T15:40:41.903Z,21.85
2023-03-30T15:43:28.304Z,21.70
2023-03-30T15:45:59.547Z,21.00
2023-03-30T15:48:34.506Z,20.75
2023-03-30T15:53:40.771Z,20.73
2023-03-30T15:56:18.755Z,19.75
2023-03-30T15:58:45.431Z,19.05
2023-03-30T16:01:16.078Z,22.48
2023-03-30T16:04:14.660Z,20.02
2023-03-30T16:06:43.172Z,22.23
2023-03-30T16:09:10.916Z,20.85
2023-03-30T16:11:38.036Z,21.45
2023-03-30T16:14:07.138Z,21.92
2023-03-30T16:16:34.525Z,20.55
2023-03-30T16:19:01.480Z,21.02
2023-03-30T16:21:28.172Z,21.13
2023-03-30T16:23:54.811Z,21.65
2023-03-30T16:26:21.474Z,20.73
2023-03-30T16:28:51.400Z,22.50
2023-03-30T16:31:21.461Z,21.38
2023-03-30T16:33:48.353Z,22.65
2023-03-30T16:36:20.842Z,20.40
2023-03-30T16:38:48.248Z,21.17
2023-03-30T16:41:21.356Z,19.92
2023-03-30T16:43:48.608Z,21.13
2023-03-30T16:46:17.320Z,22.40
2023-03-30T16:48:44.277Z,16.48
2023-03-30T16:51:12.859Z,20.02
2023-03-30T16:53:40.655Z,17.08
2023-03-30T16:56:14.831Z,20.65
2023-03-30T16:58:41.490Z,20.05
2023-03-30T17:01:13.033Z,16.10
2023-03-30T17:03:40.313Z,19.77
2023-03-30T17:06:07.369Z,17.10
2023-03-30T17:08:34.762Z,32.20
2023-03-30T17:11:07.485Z,50.97
2023-03-30T17:13:34.790Z,61.40
2023-03-30T17:16:02.700Z,66.38
2023-03-30T17:18:30.530Z,42.45
2023-03-30T17:20:59.507Z,32.45
2023-03-30T17:23:29.063Z,23.88
2023-03-30T17:25:57.593Z,20.48
2023-03-30T17:28:27.982Z,23.48
2023-03-30T17:31:00.411Z,15.23
2023-03-30T17:33:27.297Z,17.58
2023-03-30T17:35:58.002Z,16.00
2023-03-30T17:38:24.748Z,17.20
2023-03-30T17:40:51.528Z,22.17
2023-03-30T17:43:18.274Z,16.83
2023-03-30T17:45:46.294Z,19.30
2023-03-30T17:48:16.460Z,19.17
2023-03-30T17:50:45.976Z,10.07
2023-03-30T17:53:14.589Z,7.57
2023-03-30T17:55:41.476Z,13.52
2023-03-30T17:58:31.744Z,10.50
2023-03-30T18:01:00.963Z,10.18
2023-03-30T18:03:31.269Z,10.73
2023-03-30T18:06:00.259Z,9.90
2023-03-30T18:08:27.927Z,12.43
2023-03-30T18:10:56.668Z,17.45
2023-03-30T18:13:24.639Z,15.02
2023-03-30T18:15:54.668Z,13.60
2023-03-30T18:18:24.853Z,14.65
2023-03-30T18:20:54.686Z,18.73
2023-03-30T18:23:21.666Z,13.80
2023-03-30T18:25:48.748Z,22.98
2023-03-30T18:28:24.300Z,22.92
2023-03-30T18:30:53.374Z,24.88
2023-03-30T18:33:20.264Z,16.63
2023-03-30T18:35:48.951Z,28.35
2023-03-30T18:38:18.039Z,14.75
2023-03-30T18:40:49.145Z,24.20
2023-03-30T18:43:16.476Z,21.58
2023-03-30T18:45:46.296Z,17.70
2023-03-30T18:48:15.962Z,17.35
2023-03-30T18:50:50.772Z,10.40
2023-03-30T18:53:20.298Z,13.38
2023-03-30T18:55:49.197Z,12.25
2023-03-30T18:58:22.908Z,15.38
2023-03-30T19:00:51.516Z,14.70
2023-03-30T19:03:19.724Z,15.63
2023-03-30T19:05:47.335Z,22.13
2023-03-30T19:08:16.255Z,15.80
2023-03-30T19:10:44.574Z,16.30
2023-03-30T19:13:16.632Z,12.48
2023-03-30T19:15:44.266Z,20.05
2023-03-30T19:18:11.534Z,12.48
2023-03-30T19:20:40.938Z,9.40
2023-03-30T19:23:11.206Z,11.25
2023-03-30T19:25:38.376Z,12.10
2023-03-30T19:28:06.270Z,14.13
2023-03-30T19:30:35.996Z,13.27
2023-03-30T19:33:06.512Z,14.13
2023-03-30T19:35:33.563Z,14.52
2023-03-30T19:38:00.464Z,15.95
2023-03-30T19:40:27.575Z,20.75
2023-03-30T19:42:54.210Z,12.75
2023-03-30T19:45:21.519Z,19.45
2023-03-30T19:47:48.235Z,11.00
2023-03-30T19:50:20.135Z,10.38
2023-03-30T19:52:49.718Z,10.95
2023-03-30T19:55:17.704Z,14.00
2023-03-30T19:57:45.386Z,16.48
2023-03-30T20:00:15.620Z,16.83
2023-03-30T20:02:44.816Z,19.27
2023-03-30T20:05:15.426Z,17.67
2023-03-30T20:07:43.221Z,18.60
2023-03-30T20:10:12.279Z,16.98
2023-03-30T20:12:39.418Z,13.15
2023-03-30T20:15:09.339Z,12.20
2023-03-30T20:17:36.694Z,19.33
2023-03-30T20:20:09.082Z,15.07
2023-03-30T20:22:37.844Z,13.63
2023-03-30T20:25:07.361Z,13.75
2023-03-30T20:27:35.267Z,24.60
2023-03-30T20:30:02.563Z,16.27
2023-03-30T20:32:29.470Z,26.00
2023-03-30T20:34:56.158Z,25.35
2023-03-30T20:37:22.851Z,19.50
2023-03-30T20:39:50.365Z,11.77
2023-03-30T20:42:17.845Z,14.18
2023-03-30T20:44:49.924Z,15.00
2023-03-30T20:47:17.629Z,19.75
2023-03-30T20:49:46.179Z,28.08
2023-03-30T20:52:12.965Z,20.45
2023-03-30T20:54:41.067Z,17.75
2023-03-30T20:57:07.892Z,14.18
2023-03-30T20:59:34.587Z,24.08
2023-03-30T21:02:03.411Z,16.98
2023-03-30T21:04:30.217Z,13.85
2023-03-30T21:06:57.163Z,18.83
2023-03-30T21:09:24.065Z,14.38
2023-03-30T21:11:50.781Z,17.20
2023-03-30T21:14:17.513Z,13.82
2023-03-30T21:16:44.616Z,13.15
2023-03-30T21:19:11.735Z,13.02
2023-03-30T21:21:38.679Z,12.93
2023-03-30T21:24:06.915Z,13.65
2023-03-30T21:26:33.582Z,13.68
2023-03-30T21:29:00.366Z,11.77
2023-03-30T21:31:27.056Z,13.65
2023-03-30T21:33:53.738Z,15.77
2023-03-30T21:36:20.686Z,14.65
2023-03-30T21:38:47.395Z,13.73
2023-03-30T21:41:19.302Z,13.55
2023-03-30T21:43:47.447Z,14.43
2023-03-30T21:46:22.653Z,15.18
2023-03-30T21:48:53.059Z,14.68
2023-03-30T21:51:28.583Z,14.00
2023-03-30T21:53:56.411Z,14.18
2023-03-30T21:56:27.392Z,14.35
2023-03-30T21:58:54.067Z,15.57
2023-03-30T22:01:25.578Z,14.23
2023-03-30T22:03:53.601Z,19.33
2023-03-30T22:06:21.247Z,14.23
2023-03-30T22:08:47.888Z,14.43
2023-03-30T22:11:17.331Z,14.75
2023-03-30T22:13:46.148Z,14.68
2023-03-30T22:16:17.490Z,18.38
2023-03-30T22:18:45.391Z,14.50
2023-03-30T22:21:15.252Z,13.93
2023-03-30T22:23:41.922Z,14.00
2023-03-30T22:26:08.772Z,20.95
2023-03-30T22:28:35.713Z,14.40
2023-03-30T22:31:02.472Z,14.85
2023-03-30T22:33:29.158Z,15.55
2023-03-30T22:35:56.949Z,19.45
2023-03-30T22:38:23.686Z,15.02
2023-03-30T22:40:50.363Z,14.60
2023-03-30T22:43:17.294Z,15.10
2023-03-30T22:45:44.064Z,14.50
2023-03-30T22:48:11.114Z,16.00
2023-03-30T22:50:37.767Z,16.42
2023-03-30T22:53:04.438Z,14.32
2023-03-30T22:55:31.131Z,16.70
2023-03-30T22:57:57.825Z,14.23
2023-03-30T23:00:25.322Z,15.25
2023-03-30T23:02:53.349Z,13.98
2023-03-30T23:05:23.010Z,13.63
2023-03-30T23:07:50.421Z,13.50
2023-03-30T23:10:19.344Z,14.10
2023-03-30T23:12:46.619Z,14.73
2023-03-30T23:15:13.653Z,13.75
2023-03-30T23:17:40.849Z,13.73
2023-03-30T23:20:10.096Z,12.93
2023-03-30T23:22:37.940Z,13.43
2023-03-30T23:25:06.323Z,13.43
2023-03-30T23:27:33.750Z,12.57
2023-03-30T23:30:00.452Z,13.05
2023-03-30T23:32:27.363Z,12.32
2023-03-30T23:34:54.082Z,13.20
2023-03-30T23:37:21.839Z,13.10
2023-03-30T23:39:48.965Z,14.13
2023-03-30T23:42:16.209Z,12.80
2023-03-30T23:44:42.851Z,13.55
2023-03-30T23:47:09.514Z,12.27
2023-03-30T23:49:36.193Z,11.85
2023-03-30T23:52:02.868Z,13.13
2023-03-30T23:54:31.345Z,13.43
2023-03-30T23:56:58.263Z,11.93
2023-03-30T23:59:25.185Z,12.35
